createdAt,value
2019-04-26T00:00:53.357Z,30.67
2019-04-26T00:03:33.885Z,26.30
2019-04-26T00:06:05.808Z,27.10
2019-04-26T00:08:36.528Z,26.40
2019-04-26T00:11:18.160Z,25.37
2019-04-26T00:14:06.344Z,25.53
2019-04-26T00:16:47.219Z,25.63
2019-04-26T00:19:17.887Z,26.17
2019-04-26T00:21:48.370Z,25.90
2019-04-26T00:24:19.388Z,23.87
2019-04-26T00:26:49.587Z,24.77
2019-04-26T00:29:19.579Z,24.07
2019-04-26T00:31:49.658Z,24.00
2019-04-26T00:34:19.693Z,27.10
2019-04-26T00:36:49.709Z,28.67
2019-04-26T00:39:20.328Z,27.07
2019-04-26T00:41:50.953Z,25.27
2019-04-26T00:44:20.960Z,25.97
2019-04-26T00:46:53.812Z,24.37
2019-04-26T00:49:23.895Z,22.77
2019-04-26T00:51:54.155Z,23.17
2019-04-26T00:54:26.153Z,23.10
2019-04-26T00:56:57.008Z,23.00
2019-04-26T00:59:28.404Z,23.43
2019-04-26T01:02:12.257Z,22.33
2019-04-26T01:04:42.432Z,23.30
2019-04-26T01:07:12.815Z,24.40
2019-04-26T01:09:42.914Z,23.43
2019-04-26T01:12:12.999Z,23.40
2019-04-26T01:14:43.087Z,23.30
2019-04-26T01:17:13.078Z,23.90
2019-04-26T01:19:45.420Z,25.93
2019-04-26T01:22:21.500Z,24.60
2019-04-26T01:24:53.898Z,24.10
2019-04-26T01:27:27.752Z,27.00
2019-04-26T01:30:00.939Z,24.87
2019-04-26T01:32:32.833Z,25.03
2019-04-26T01:35:02.947Z,25.73
2019-04-26T01:37:33.646Z,24.37
2019-04-26T01:40:08.215Z,27.47
2019-04-26T01:42:50.523Z,23.77
2019-04-26T01:45:27.931Z,23.13
2019-04-26T01:48:01.012Z,25.67
2019-04-26T01:50:33.989Z,24.27
2019-04-26T01:53:05.865Z,24.33
2019-04-26T01:55:35.980Z,23.93
2019-04-26T01:58:07.174Z,24.30
2019-04-26T02:00:47.652Z,23.87
2019-04-26T02:03:25.646Z,25.20
2019-04-26T02:05:56.033Z,24.13
2019-04-26T02:08:26.616Z,23.90
2019-04-26T02:10:57.211Z,23.83
2019-04-26T02:13:27.300Z,24.63
2019-04-26T02:15:57.313Z,24.30
2019-04-26T02:18:27.493Z,24.80
2019-04-26T02:21:10.136Z,25.07
2019-04-26T02:23:44.542Z,25.23
2019-04-26T02:26:34.640Z,23.67
2019-04-26T02:29:10.860Z,25.50
2019-04-26T02:31:43.579Z,25.60
2019-04-26T02:34:15.377Z,25.80
2019-04-26T02:36:56.997Z,26.70
2019-04-26T02:39:20.150Z,24.40
2019-04-26T02:41:53.109Z,23.10
2019-04-26T02:44:28.893Z,22.10
2019-04-26T02:47:26.679Z,23.30
2019-04-26T02:50:02.115Z,23.60
2019-04-26T02:52:46.675Z,23.37
2019-04-26T02:55:42.270Z,24.67
2019-04-26T02:58:11.663Z,23.03
2019-04-26T03:00:41.756Z,23.47
2019-04-26T03:03:13.330Z,22.33
2019-04-26T03:05:45.934Z,22.77
2019-04-26T03:08:18.946Z,22.67
2019-04-26T03:10:51.935Z,22.90
2019-04-26T03:13:28.959Z,22.67
2019-04-26T03:16:11.203Z,22.77
2019-04-26T03:18:45.792Z,27.30
2019-04-26T03:21:32.022Z,26.07
2019-04-26T03:24:13.923Z,27.50
2019-04-26T03:26:46.827Z,26.63
2019-04-26T03:29:25.828Z,24.07
2019-04-26T03:32:16.208Z,23.43
2019-04-26T03:34:53.931Z,23.30
2019-04-26T03:37:33.804Z,23.73
2019-04-26T03:40:44.593Z,22.80
2019-04-26T03:43:23.223Z,22.60
2019-04-26T03:46:02.272Z,23.50
2019-04-26T03:48:46.864Z,23.50
2019-04-26T03:51:22.633Z,22.97
2019-04-26T03:54:12.415Z,23.90
2019-04-26T03:56:52.904Z,23.67
2019-04-26T03:59:36.903Z,23.03
2019-04-26T04:02:21.808Z,24.03
2019-04-26T04:05:01.999Z,22.60
2019-04-26T04:07:39.345Z,22.40
2019-04-26T04:10:15.413Z,23.17
2019-04-26T04:12:54.330Z,23.90
2019-04-26T04:15:40.598Z,23.30
2019-04-26T04:18:15.571Z,23.13
2019-04-26T04:21:20.468Z,24.73
2019-04-26T04:24:05.164Z,23.83
2019-04-26T04:26:57.758Z,23.87
2019-04-26T04:29:54.650Z,25.53
2019-04-26T04:32:26.768Z,22.40
2019-04-26T04:34:59.825Z,23.87
2019-04-26T04:37:32.818Z,25.33
2019-04-26T04:40:13.339Z,26.70
2019-04-26T04:42:48.133Z,21.73
2019-04-26T04:45:42.462Z,24.07
2019-04-26T04:48:29.112Z,22.40
2019-04-26T04:51:21.344Z,23.23
2019-04-26T04:54:09.501Z,22.17
2019-04-26T04:56:57.715Z,23.13
2019-04-26T04:59:52.336Z,23.93
2019-04-26T05:02:51.066Z,21.50
2019-04-26T05:05:40.575Z,20.57
2019-04-26T05:08:24.957Z,22.37
2019-04-26T05:11:13.406Z,20.00
2019-04-26T05:13:58.315Z,20.77
2019-04-26T05:16:52.634Z,19.93
2019-04-26T05:19:31.468Z,20.20
2019-04-26T05:22:22.476Z,20.77
2019-04-26T05:25:40.272Z,23.03
2019-04-26T05:28:40.091Z,21.27
2019-04-26T05:31:17.552Z,20.07
2019-04-26T05:34:08.411Z,21.17
2019-04-26T05:37:01.034Z,21.50
2019-04-26T05:39:51.212Z,21.23
2019-04-26T05:42:51.724Z,21.10
2019-04-26T05:45:41.331Z,19.20
2019-04-26T05:48:24.750Z,20.07
2019-04-26T05:51:24.419Z,18.17
2019-04-26T05:54:18.356Z,19.30
2019-04-26T05:57:02.669Z,19.27
2019-04-26T05:59:44.797Z,19.67
2019-04-26T06:02:41.440Z,18.43
2019-04-26T06:05:29.396Z,19.07
2019-04-26T06:08:44.476Z,19.93
2019-04-26T06:11:19.075Z,19.47
2019-04-26T06:14:24.813Z,19.43
2019-04-26T06:17:08.402Z,18.30
2019-04-26T06:20:22.703Z,16.77
2019-04-26T06:23:11.921Z,15.37
2019-04-26T06:25:57.981Z,15.40
2019-04-26T06:28:47.837Z,16.13
2019-04-26T06:31:30.042Z,14.03
2019-04-26T06:34:06.022Z,16.40
2019-04-26T06:36:43.377Z,15.13
2019-04-26T06:39:20.571Z,16.20
2019-04-26T06:42:16.322Z,13.00
2019-04-26T06:44:54.889Z,13.90
2019-04-26T06:47:50.703Z,13.00
2019-04-26T06:50:36.784Z,11.10
2019-04-26T06:53:09.684Z,10.60
2019-04-26T06:55:47.019Z,10.23
2019-04-26T06:58:52.960Z,10.43
2019-04-26T07:01:42.814Z,9.87
2019-04-26T07:04:30.745Z,9.20
2019-04-26T07:07:24.372Z,8.70
2019-04-26T07:10:15.487Z,8.33
2019-04-26T07:12:49.971Z,8.47
2019-04-26T07:15:28.707Z,9.40
2019-04-26T07:18:21.296Z,8.57
2019-04-26T07:21:14.319Z,8.30
2019-04-26T07:23:54.783Z,7.87
2019-04-26T07:27:01.410Z,8.70
2019-04-26T07:29:46.653Z,8.47
2019-04-26T07:32:28.510Z,8.17
2019-04-26T07:35:17.866Z,8.07
2019-04-26T07:38:11.119Z,7.70
2019-04-26T07:41:21.779Z,8.67
2019-04-26T07:44:11.847Z,8.33
2019-04-26T07:46:53.485Z,7.73
2019-04-26T07:49:59.628Z,6.50
2019-04-26T07:52:32.584Z,6.37
2019-04-26T07:55:20.647Z,6.20
2019-04-26T07:58:11.064Z,5.57
2019-04-26T08:00:51.215Z,5.33
2019-04-26T08:03:31.611Z,4.97
2019-04-26T08:06:13.723Z,5.03
2019-04-26T08:08:52.455Z,5.17
2019-04-26T08:11:28.326Z,5.13
2019-04-26T08:14:10.792Z,4.30
2019-04-26T08:16:50.947Z,4.30
2019-04-26T08:19:25.488Z,4.80
2019-04-26T08:22:11.584Z,4.53
2019-04-26T08:24:30.984Z,4.80
2019-04-26T08:27:13.717Z,5.50
2019-04-26T08:29:41.944Z,5.00
2019-04-26T08:32:16.507Z,4.17
2019-04-26T08:34:49.651Z,4.77
2019-04-26T08:37:26.453Z,5.17
2019-04-26T08:39:58.067Z,5.00
2019-04-26T08:42:33.591Z,4.80
2019-04-26T08:45:24.300Z,4.20
2019-04-26T08:48:12.223Z,4.40
2019-04-26T08:50:53.838Z,4.63
2019-04-26T08:53:25.692Z,5.20
2019-04-26T08:55:57.935Z,3.43
2019-04-26T08:58:30.840Z,4.23
2019-04-26T09:01:08.202Z,4.10
2019-04-26T09:03:48.917Z,3.97
2019-04-26T09:06:23.341Z,4.60
2019-04-26T09:08:55.768Z,3.53
2019-04-26T09:11:33.439Z,4.00
2019-04-26T09:14:03.897Z,3.87
2019-04-26T09:16:33.991Z,6.20
2019-04-26T09:19:04.115Z,5.23
2019-04-26T09:21:41.623Z,4.03
2019-04-26T09:24:24.955Z,4.63
2019-04-26T09:26:58.656Z,5.57
2019-04-26T09:29:36.384Z,7.00
2019-04-26T09:32:11.117Z,4.50
2019-04-26T09:34:42.885Z,5.10
2019-04-26T09:37:13.172Z,4.87
2019-04-26T09:39:43.458Z,4.73
2019-04-26T09:42:15.204Z,4.97
2019-04-26T09:45:01.945Z,4.80
2019-04-26T09:47:49.995Z,6.00
2019-04-26T09:50:24.662Z,4.57
2019-04-26T09:52:58.209Z,4.53
2019-04-26T09:55:35.629Z,4.27
2019-04-26T09:58:01.352Z,5.03
2019-04-26T10:00:32.033Z,4.70
2019-04-26T10:03:05.482Z,5.67
2019-04-26T10:05:33.827Z,5.30
2019-04-26T10:08:04.125Z,6.00
2019-04-26T10:10:35.353Z,7.73
2019-04-26T10:13:07.575Z,6.20
2019-04-26T10:15:58.193Z,5.50
2019-04-26T10:18:27.314Z,7.20
2019-04-26T10:20:57.378Z,4.40
2019-04-26T10:23:27.477Z,5.10
2019-04-26T10:25:57.565Z,4.10
2019-04-26T10:28:27.570Z,4.73
2019-04-26T10:30:58.170Z,5.00
2019-04-26T10:33:28.276Z,4.80
2019-04-26T10:35:58.277Z,5.43
2019-04-26T10:38:28.306Z,5.00
2019-04-26T10:40:58.292Z,4.83
2019-04-26T10:43:29.453Z,5.03
2019-04-26T10:45:59.719Z,4.63
2019-04-26T10:48:29.718Z,4.60
2019-04-26T10:51:03.293Z,4.80
2019-04-26T10:53:33.062Z,4.30
2019-04-26T10:56:20.217Z,4.73
2019-04-26T10:58:53.015Z,4.57
2019-04-26T11:01:23.161Z,4.63
2019-04-26T11:03:53.463Z,4.10
2019-04-26T11:06:24.031Z,4.37
2019-04-26T11:08:56.719Z,4.77
2019-04-26T11:11:26.697Z,5.37
2019-04-26T11:13:57.571Z,4.13
2019-04-26T11:16:27.848Z,4.50
2019-04-26T11:19:01.113Z,3.60
2019-04-26T11:21:29.509Z,3.70
2019-04-26T11:24:00.765Z,4.83
2019-04-26T11:29:40.891Z,5.00
2019-04-26T11:32:10.967Z,5.10
2019-04-26T11:34:42.915Z,4.60
2019-04-26T11:37:13.366Z,4.40
2019-04-26T11:39:44.433Z,4.63
2019-04-26T11:42:14.478Z,3.83
2019-04-26T11:44:44.919Z,5.00
2019-04-26T11:47:14.989Z,3.87
2019-04-26T11:49:45.055Z,4.73
2019-04-26T11:52:15.031Z,3.83
2019-04-26T11:54:44.998Z,4.17
2019-04-26T11:57:14.971Z,4.63
2019-04-26T11:59:45.042Z,4.03
2019-04-26T12:02:16.257Z,4.17
2019-04-26T12:04:49.527Z,4.70
2019-04-26T12:07:21.619Z,4.30
2019-04-26T12:09:53.253Z,4.20
2019-04-26T12:12:23.321Z,3.60
2019-04-26T12:14:53.298Z,4.00
2019-04-26T12:17:26.881Z,3.97
2019-04-26T12:19:55.977Z,4.93
2019-04-26T12:22:25.945Z,4.27
2019-04-26T12:24:56.030Z,4.13
2019-04-26T12:27:26.584Z,4.00
2019-04-26T12:29:57.806Z,3.57
2019-04-26T12:32:27.774Z,3.77
2019-04-26T12:34:57.778Z,3.93
2019-04-26T12:37:27.847Z,3.03
2019-04-26T12:39:57.958Z,3.20
2019-04-26T12:42:27.926Z,3.80
2019-04-26T12:45:18.350Z,3.80
2019-04-26T12:47:53.033Z,3.53
2019-04-26T12:50:23.124Z,3.77
2019-04-26T12:52:55.749Z,3.20
2019-04-26T12:55:24.983Z,3.50
2019-04-26T12:57:54.976Z,3.40
2019-04-26T13:00:26.620Z,4.20
2019-04-26T13:02:56.902Z,3.73
2019-04-26T13:05:26.902Z,2.70
2019-04-26T13:07:57.006Z,2.83
2019-04-26T13:10:45.067Z,3.67
2019-04-26T13:13:25.799Z,3.23
2019-04-26T13:16:06.431Z,9.17
2019-04-26T13:18:36.408Z,3.47
2019-04-26T13:21:06.506Z,3.77
2019-04-26T13:23:36.478Z,3.60
2019-04-26T13:26:06.574Z,3.53
2019-04-26T13:28:36.555Z,3.40
2019-04-26T13:31:06.637Z,3.07
2019-04-26T13:33:36.710Z,3.90
2019-04-26T13:36:06.705Z,3.50
2019-04-26T13:38:39.523Z,3.17
2019-04-26T13:41:08.475Z,9.10
2019-04-26T13:43:38.542Z,3.10
2019-04-26T13:46:15.992Z,3.50
2019-04-26T13:49:05.911Z,4.50
2019-04-26T13:51:37.702Z,3.23
2019-04-26T13:54:07.772Z,3.87
2019-04-26T13:56:37.769Z,3.27
2019-04-26T13:59:07.736Z,4.20
2019-04-26T14:01:37.827Z,3.40
2019-04-26T14:04:09.026Z,3.67
2019-04-26T14:06:40.799Z,4.13
2019-04-26T14:09:12.686Z,3.50
2019-04-26T14:11:42.680Z,3.33
2019-04-26T14:14:12.645Z,5.87
2019-04-26T14:16:43.041Z,3.50
2019-04-26T14:19:15.429Z,3.37
2019-04-26T14:21:44.904Z,3.40
2019-04-26T14:24:23.979Z,3.50
2019-04-26T14:26:55.885Z,3.30
2019-04-26T14:29:28.447Z,3.30
2019-04-26T14:31:59.370Z,3.50
2019-04-26T14:34:29.433Z,4.03
2019-04-26T14:37:06.208Z,3.87
2019-04-26T14:39:43.285Z,5.30
2019-04-26T14:42:03.779Z,3.93
2019-04-26T14:44:33.957Z,3.47
2019-04-26T14:47:13.952Z,3.60
2019-04-26T14:49:39.228Z,4.43
2019-04-26T14:52:08.515Z,3.07
2019-04-26T14:54:41.344Z,3.50
2019-04-26T14:57:15.552Z,3.43
2019-04-26T14:59:49.593Z,3.00
2019-04-26T15:02:27.290Z,3.53
2019-04-26T15:05:09.087Z,3.30
2019-04-26T15:07:48.547Z,3.03
2019-04-26T15:10:11.028Z,3.80
2019-04-26T15:12:46.207Z,3.23
2019-04-26T15:15:11.979Z,3.30
2019-04-26T15:17:42.328Z,3.13
2019-04-26T15:20:16.714Z,24.70
2019-04-26T15:22:48.563Z,5.23
2019-04-26T15:25:19.000Z,5.73
2019-04-26T15:27:52.498Z,3.80
2019-04-26T15:30:23.921Z,3.90
2019-04-26T15:33:04.758Z,5.47
2019-04-26T15:35:36.768Z,4.17
2019-04-26T15:38:06.753Z,4.17
2019-04-26T15:40:44.325Z,5.00
2019-04-26T15:43:27.902Z,6.50
2019-04-26T15:46:08.156Z,4.20
2019-04-26T15:48:43.029Z,4.73
2019-04-26T15:51:14.698Z,3.53
2019-04-26T15:53:48.766Z,3.43
2019-04-26T15:56:19.308Z,3.07
2019-04-26T15:58:49.431Z,3.33
2019-04-26T16:01:19.397Z,4.07
2019-04-26T16:03:49.394Z,8.10
2019-04-26T16:06:19.363Z,3.93
2019-04-26T16:08:49.354Z,3.83
2019-04-26T16:11:21.365Z,3.97
2019-04-26T16:13:55.406Z,3.93
2019-04-26T16:16:27.965Z,4.07
2019-04-26T16:19:00.618Z,4.17
2019-04-26T16:21:32.483Z,4.03
2019-04-26T16:24:05.074Z,15.47
2019-04-26T16:26:37.908Z,11.10
2019-04-26T16:29:09.498Z,5.07
2019-04-26T16:31:47.148Z,6.60
2019-04-26T16:34:23.352Z,6.20
2019-04-26T16:36:53.573Z,4.90
2019-04-26T16:39:28.461Z,5.00
2019-04-26T16:41:59.256Z,5.57
2019-04-26T16:44:31.316Z,4.20
2019-04-26T16:47:03.658Z,4.23
2019-04-26T16:49:35.237Z,4.57
2019-04-26T16:52:10.840Z,4.70
2019-04-26T16:54:43.110Z,5.27
2019-04-26T16:57:13.232Z,6.80
2019-04-26T16:59:49.183Z,12.83
2019-04-26T17:02:16.208Z,7.30
2019-04-26T17:04:46.890Z,8.00
2019-04-26T17:07:22.015Z,12.90
2019-04-26T17:09:57.332Z,23.70
2019-04-26T17:12:20.370Z,10.57
2019-04-26T17:14:53.385Z,6.20
2019-04-26T17:17:27.344Z,8.30
2019-04-26T17:19:58.633Z,15.87
2019-04-26T17:22:44.355Z,25.87
2019-04-26T17:25:17.023Z,13.13
2019-04-26T17:27:47.242Z,58.43
2019-04-26T17:30:22.207Z,69.83
2019-04-26T17:32:55.308Z,28.17
2019-04-26T17:35:26.462Z,18.17
2019-04-26T17:38:01.404Z,5.80
2019-04-26T17:40:36.144Z,6.73
2019-04-26T17:43:05.301Z,5.00
2019-04-26T17:45:42.482Z,6.20
2019-04-26T17:48:12.841Z,8.93
2019-04-26T17:50:42.380Z,32.03
2019-04-26T17:53:26.105Z,15.63
2019-04-26T17:55:52.987Z,12.00
2019-04-26T17:58:27.739Z,8.73
2019-04-26T18:00:51.803Z,7.50
2019-04-26T18:03:23.177Z,6.83
2019-04-26T18:05:57.297Z,6.53
2019-04-26T18:08:41.422Z,9.53
2019-04-26T18:11:02.958Z,13.37
2019-04-26T18:13:34.580Z,15.03
2019-04-26T18:16:05.923Z,12.37
2019-04-26T18:18:53.663Z,13.97
2019-04-26T18:21:37.183Z,13.87
2019-04-26T18:24:08.728Z,22.00
2019-04-26T18:26:39.500Z,46.37
2019-04-26T18:29:10.244Z,55.93
2019-04-26T18:31:41.106Z,63.67
2019-04-26T18:34:12.878Z,29.70
2019-04-26T18:36:44.496Z,26.10
2019-04-26T18:39:18.025Z,18.47
2019-04-26T18:41:48.646Z,22.73
2019-04-26T18:44:20.018Z,29.93
2019-04-26T18:47:04.477Z,42.23
2019-04-26T18:49:36.320Z,30.53
2019-04-26T18:52:08.859Z,32.87
2019-04-26T18:54:43.665Z,34.17
2019-04-26T18:57:17.161Z,30.27
2019-04-26T18:59:51.051Z,31.93
2019-04-26T19:02:20.106Z,36.90
2019-04-26T19:04:50.211Z,43.30
2019-04-26T19:07:31.488Z,52.27
2019-04-26T19:10:02.864Z,47.73
2019-04-26T19:12:26.994Z,43.17
2019-04-26T19:15:03.122Z,39.03
2019-04-26T19:17:36.509Z,54.30
2019-04-26T19:20:24.926Z,42.77
2019-04-26T19:22:56.507Z,39.13
2019-04-26T19:25:30.033Z,46.57
2019-04-26T19:28:03.323Z,36.50
2019-04-26T19:30:30.702Z,33.50
2019-04-26T19:33:02.201Z,32.30
2019-04-26T19:35:33.687Z,31.77
2019-04-26T19:38:07.393Z,31.87
2019-04-26T19:40:39.377Z,26.80
2019-04-26T19:43:09.510Z,27.20
2019-04-26T19:45:45.855Z,27.20
2019-04-26T19:48:31.504Z,25.60
2019-04-26T19:51:19.109Z,26.07
2019-04-26T19:53:54.144Z,28.73
2019-04-26T19:56:27.633Z,48.80
2019-04-26T19:58:58.750Z,61.57
2019-04-26T20:01:30.493Z,77.90
2019-04-26T20:04:02.636Z,72.13
2019-04-26T20:06:35.355Z,80.50
2019-04-26T20:09:07.813Z,80.30
2019-04-26T20:11:39.569Z,37.97
2019-04-26T20:14:12.366Z,36.97
2019-04-26T20:16:44.026Z,36.50
2019-04-26T20:19:17.632Z,46.60
2019-04-26T20:21:49.760Z,41.20
2019-04-26T20:24:21.092Z,32.53
2019-04-26T20:26:53.466Z,67.00
2019-04-26T20:29:24.752Z,61.53
2019-04-26T20:31:56.728Z,43.67
2019-04-26T20:34:27.070Z,31.73
2019-04-26T20:36:58.895Z,84.57
2019-04-26T20:39:31.698Z,65.10
2019-04-26T20:42:04.052Z,32.67
2019-04-26T20:44:50.468Z,51.30
2019-04-26T20:47:11.581Z,56.73
2019-04-26T20:49:49.374Z,50.13
2019-04-26T20:52:16.585Z,40.00
2019-04-26T20:54:46.612Z,36.43
2019-04-26T20:57:18.531Z,34.03
2019-04-26T20:59:52.075Z,32.33
2019-04-26T21:02:24.722Z,26.30
2019-04-26T21:04:55.496Z,25.43
2019-04-26T21:07:25.490Z,24.60
2019-04-26T21:09:55.597Z,25.33
2019-04-26T21:12:25.577Z,24.37
2019-04-26T21:14:56.632Z,19.30
2019-04-26T21:17:27.931Z,20.10
2019-04-26T21:19:58.621Z,89.90
2019-04-26T21:22:28.980Z,94.17
2019-04-26T21:25:04.692Z,20.20
2019-04-26T21:27:36.650Z,30.70
2019-04-26T21:30:21.953Z,22.93
2019-04-26T21:32:59.183Z,33.27
2019-04-26T21:35:39.023Z,35.87
2019-04-26T21:38:29.753Z,48.00
2019-04-26T21:41:04.358Z,18.53
2019-04-26T21:43:34.832Z,20.77
2019-04-26T21:46:09.813Z,26.73
2019-04-26T21:48:37.361Z,20.23
2019-04-26T21:51:08.465Z,15.27
2019-04-26T21:53:41.506Z,15.23
2019-04-26T21:56:11.557Z,15.80
2019-04-26T21:58:43.642Z,14.53
2019-04-26T22:01:18.971Z,14.40
2019-04-26T22:03:54.327Z,14.60
2019-04-26T22:06:26.813Z,16.27
2019-04-26T22:09:02.864Z,15.07
2019-04-26T22:11:35.224Z,14.40
2019-04-26T22:14:06.969Z,13.33
2019-04-26T22:16:41.386Z,15.47
2019-04-26T22:19:21.570Z,16.10
2019-04-26T22:21:52.824Z,15.43
2019-04-26T22:24:40.010Z,14.63
2019-04-26T22:27:10.106Z,17.00
2019-04-26T22:29:40.479Z,37.83
2019-04-26T22:32:15.107Z,49.67
2019-04-26T22:34:46.177Z,22.80
2019-04-26T22:37:29.165Z,17.57
2019-04-26T22:39:49.139Z,21.13
2019-04-26T22:42:19.845Z,20.40
2019-04-26T22:44:51.497Z,16.77
2019-04-26T22:47:33.921Z,12.87
2019-04-26T22:50:07.926Z,12.67
2019-04-26T22:52:38.040Z,12.03
2019-04-26T22:55:08.109Z,9.40
2019-04-26T22:57:38.204Z,8.27
2019-04-26T23:00:08.569Z,9.40
2019-04-26T23:02:38.682Z,7.90
2019-04-26T23:05:10.019Z,7.73
2019-04-26T23:07:40.230Z,6.87
2019-04-26T23:10:13.308Z,6.30
2019-04-26T23:12:45.169Z,5.93
2019-04-26T23:15:30.226Z,5.43
2019-04-26T23:18:17.002Z,4.97
2019-04-26T23:20:48.648Z,5.17
2019-04-26T23:23:18.870Z,5.13
2019-04-26T23:25:48.937Z,5.40
2019-04-26T23:28:19.044Z,5.60
2019-04-26T23:30:49.145Z,6.20
2019-04-26T23:33:19.356Z,6.27
2019-04-26T23:35:49.434Z,6.53
2019-04-26T23:38:19.632Z,8.70
2019-04-26T23:40:49.834Z,9.07
2019-04-26T23:43:22.522Z,11.03
2019-04-26T23:45:53.037Z,11.50
2019-04-26T23:48:23.211Z,10.63
2019-04-26T23:50:53.851Z,13.43
2019-04-26T23:53:24.343Z,13.10
2019-04-26T23:55:54.436Z,13.43
2019-04-26T23:58:24.565Z,14.07
